< < Back
Terminal Aerodrome Forecast


Current Version              Previous Versions:   1  2  3  4  5  6  7  8  9  

Terminal Aerodrome Forecast

535
FTUS42 KFFC 031949 AAA
TAFPDK
TAF AMD
KPDK 031949Z 0320/0418 26012G20KT P6SM -RA SCT030 BKN050
     FM032300 28010KT P6SM -RA SCT025 BKN040
     FM040600 23005KT P6SM VCSH SCT020 BKN040
      TEMPO 0406/0410 VRB15G25KT 3SM TSRA BKN020CB
     FM041000 25009KT P6SM -SHRA SCT015 BKN035=



Latest METAR

169
SAUS70 KWBC 040500 RRI
MTRPDK
METAR KPDK 040453Z 22005KT 5SM BR BKN038 BKN048 23/22 A3003 RMK AO2
SLP151 T02330217 402780211


USA.gov is the U.S. government's official web portal to all federal, state and local government web resources and services.